sensor_id;sensor_type;location;lat;lon;timestamp;temperature;humidity
63771;DHT22;60282;43.862;18.430;2023-03-21T00:00:37;7.80;99.90
63771;DHT22;60282;43.862;18.430;2023-03-21T00:03:04;7.90;99.90
63771;DHT22;60282;43.862;18.430;2023-03-21T00:05:30;7.80;99.90
63771;DHT22;60282;43.862;18.430;2023-03-21T00:07:56;7.80;99.90
63771;DHT22;60282;43.862;18.430;2023-03-21T00:10:22;7.80;99.90
63771;DHT22;60282;43.862;18.430;2023-03-21T00:12:47;7.70;99.90
63771;DHT22;60282;43.862;18.430;2023-03-21T00:15:26;7.70;99.90
63771;DHT22;60282;43.862;18.430;2023-03-21T00:17:55;7.60;99.90
63771;DHT22;60282;43.862;18.430;2023-03-21T00:20:32;7.60;99.90
63771;DHT22;60282;43.862;18.430;2023-03-21T00:22:59;7.60;99.90
63771;DHT22;60282;43.862;18.430;2023-03-21T00:25:28;7.50;99.90
63771;DHT22;60282;43.862;18.430;2023-03-21T00:27:55;7.40;99.90
63771;DHT22;60282;43.862;18.430;2023-03-21T00:30:20;7.50;99.90
63771;DHT22;60282;43.862;18.430;2023-03-21T00:32:47;7.50;99.90
63771;DHT22;60282;43.862;18.430;2023-03-21T00:37:40;7.40;99.90
63771;DHT22;60282;43.862;18.430;2023-03-21T00:40:12;7.40;99.90
63771;DHT22;60282;43.862;18.430;2023-03-21T00:45:05;7.30;99.90
63771;DHT22;60282;43.862;18.430;2023-03-21T00:50:03;7.40;99.90
63771;DHT22;60282;43.862;18.430;2023-03-21T00:52:33;7.40;99.90
63771;DHT22;60282;43.862;18.430;2023-03-21T00:55:13;7.40;99.90
63771;DHT22;60282;43.862;18.430;2023-03-21T00:57:40;7.30;99.90
63771;DHT22;60282;43.862;18.430;2023-03-21T01:00:14;7.30;99.90
63771;DHT22;60282;43.862;18.430;2023-03-21T01:05:31;7.30;99.90
63771;DHT22;60282;43.862;18.430;2023-03-21T01:08:17;7.40;99.90
63771;DHT22;60282;43.862;18.430;2023-03-21T01:10:45;7.30;99.90
63771;DHT22;60282;43.862;18.430;2023-03-21T01:13:14;7.20;99.90
63771;DHT22;60282;43.862;18.430;2023-03-21T01:15:45;7.20;99.90
63771;DHT22;60282;43.862;18.430;2023-03-21T01:18:11;7.20;99.90
63771;DHT22;60282;43.862;18.430;2023-03-21T01:20:40;7.10;99.90
63771;DHT22;60282;43.862;18.430;2023-03-21T01:25:32;7.10;99.90
63771;DHT22;60282;43.862;18.430;2023-03-21T01:27:58;7.00;99.90
63771;DHT22;60282;43.862;18.430;2023-03-21T01:30:24;7.00;99.90
63771;DHT22;60282;43.862;18.430;2023-03-21T01:32:50;7.00;99.90
63771;DHT22;60282;43.862;18.430;2023-03-21T01:35:16;6.90;99.90
63771;DHT22;60282;43.862;18.430;2023-03-21T01:37:42;6.90;99.90
63771;DHT22;60282;43.862;18.430;2023-03-21T01:40:12;6.90;99.90
63771;DHT22;60282;43.862;18.430;2023-03-21T01:42:41;6.80;99.90
63771;DHT22;60282;43.862;18.430;2023-03-21T01:48:12;6.70;99.90
63771;DHT22;60282;43.862;18.430;2023-03-21T01:50:39;6.60;99.90
63771;DHT22;60282;43.862;18.430;2023-03-21T01:53:06;6.50;99.90
63771;DHT22;60282;43.862;18.430;2023-03-21T01:55:34;6.50;99.90
63771;DHT22;60282;43.862;18.430;2023-03-21T01:58:02;6.50;99.90
63771;DHT22;60282;43.862;18.430;2023-03-21T02:00:29;6.50;99.90
63771;DHT22;60282;43.862;18.430;2023-03-21T02:02:57;6.60;99.90
63771;DHT22;60282;43.862;18.430;2023-03-21T02:07:59;8.20;99.90
63771;DHT22;60282;43.862;18.430;2023-03-21T02:10:25;6.70;99.90
63771;DHT22;60282;43.862;18.430;2023-03-21T02:12:58;6.80;99.90
63771;DHT22;60282;43.862;18.430;2023-03-21T02:15:40;6.80;99.90
63771;DHT22;60282;43.862;18.430;2023-03-21T02:18:12;6.90;99.90
63771;DHT22;60282;43.862;18.430;2023-03-21T02:26:30;7.00;99.90
63771;DHT22;60282;43.862;18.430;2023-03-21T02:29:13;7.00;99.90
63771;DHT22;60282;43.862;18.430;2023-03-21T02:37:40;7.10;99.90
63771;DHT22;60282;43.862;18.430;2023-03-21T02:40:47;7.20;99.90
63771;DHT22;60282;43.862;18.430;2023-03-21T02:43:38;6.50;99.90
63771;DHT22;60282;43.862;18.430;2023-03-21T02:46:10;7.10;99.90
63771;DHT22;60282;43.862;18.430;2023-03-21T02:48:50;7.10;99.90
63771;DHT22;60282;43.862;18.430;2023-03-21T02:51:22;7.10;99.90
63771;DHT22;60282;43.862;18.430;2023-03-21T02:53:57;7.20;99.90
63771;DHT22;60282;43.862;18.430;2023-03-21T02:56:24;7.20;99.90
63771;DHT22;60282;43.862;18.430;2023-03-21T02:58:51;7.00;99.90
63771;DHT22;60282;43.862;18.430;2023-03-21T03:03:43;7.10;99.90
63771;DHT22;60282;43.862;18.430;2023-03-21T03:06:17;7.10;99.90
63771;DHT22;60282;43.862;18.430;2023-03-21T03:15:19;7.10;99.90
63771;DHT22;60282;43.862;18.430;2023-03-21T03:18:01;7.20;99.90
63771;DHT22;60282;43.862;18.430;2023-03-21T03:26:03;7.10;99.90
63771;DHT22;60282;43.862;18.430;2023-03-21T03:28:34;6.90;99.90
63771;DHT22;60282;43.862;18.430;2023-03-21T03:33:30;7.20;99.90
63771;DHT22;60282;43.862;18.430;2023-03-21T03:35:58;7.20;99.90
63771;DHT22;60282;43.862;18.430;2023-03-21T03:38:25;7.20;99.90
63771;DHT22;60282;43.862;18.430;2023-03-21T03:41:00;4.60;99.90
63771;DHT22;60282;43.862;18.430;2023-03-21T03:43:33;6.90;99.90
63771;DHT22;60282;43.862;18.430;2023-03-21T03:46:12;6.80;99.90
63771;DHT22;60282;43.862;18.430;2023-03-21T03:48:54;7.20;99.90
63771;DHT22;60282;43.862;18.430;2023-03-21T03:51:36;7.10;99.90
63771;DHT22;60282;43.862;18.430;2023-03-21T03:54:08;6.90;99.90
63771;DHT22;60282;43.862;18.430;2023-03-21T03:56:35;6.90;99.90
63771;DHT22;60282;43.862;18.430;2023-03-21T03:59:03;6.90;99.90
63771;DHT22;60282;43.862;18.430;2023-03-21T04:01:30;6.80;99.90
63771;DHT22;60282;43.862;18.430;2023-03-21T04:03:55;7.80;99.90
63771;DHT22;60282;43.862;18.430;2023-03-21T04:06:21;6.90;99.90
63771;DHT22;60282;43.862;18.430;2023-03-21T04:08:47;6.90;99.90
63771;DHT22;60282;43.862;18.430;2023-03-21T04:11:14;4.60;99.90
63771;DHT22;60282;43.862;18.430;2023-03-21T04:16:07;7.00;99.90
63771;DHT22;60282;43.862;18.430;2023-03-21T04:18:33;6.80;99.90
63771;DHT22;60282;43.862;18.430;2023-03-21T04:21:00;7.60;99.90
63771;DHT22;60282;43.862;18.430;2023-03-21T04:23:28;7.60;99.90
63771;DHT22;60282;43.862;18.430;2023-03-21T04:25:54;7.40;99.90
63771;DHT22;60282;43.862;18.430;2023-03-21T04:28:20;7.20;99.90
63771;DHT22;60282;43.862;18.430;2023-03-21T04:38:07;7.20;99.90
63771;DHT22;60282;43.862;18.430;2023-03-21T04:42:58;7.30;99.90
63771;DHT22;60282;43.862;18.430;2023-03-21T04:45:25;7.30;99.90
63771;DHT22;60282;43.862;18.430;2023-03-21T04:50:17;7.40;99.90
63771;DHT22;60282;43.862;18.430;2023-03-21T04:52:43;5.50;99.90
63771;DHT22;60282;43.862;18.430;2023-03-21T04:55:09;7.40;99.90
63771;DHT22;60282;43.862;18.430;2023-03-21T04:57:39;8.60;99.90
63771;DHT22;60282;43.862;18.430;2023-03-21T05:00:07;7.60;99.90
63771;DHT22;60282;43.862;18.430;2023-03-21T05:02:39;7.60;99.90
63771;DHT22;60282;43.862;18.430;2023-03-21T05:05:06;7.40;99.90
63771;DHT22;60282;43.862;18.430;2023-03-21T05:12:27;7.40;99.90
63771;DHT22;60282;43.862;18.430;2023-03-21T05:14:53;7.40;99.90
63771;DHT22;60282;43.862;18.430;2023-03-21T05:22:15;7.60;99.90
63771;DHT22;60282;43.862;18.430;2023-03-21T05:24:44;7.60;99.90
63771;DHT22;60282;43.862;18.430;2023-03-21T05:27:17;7.60;99.90
63771;DHT22;60282;43.862;18.430;2023-03-21T05:30:07;7.60;99.90
63771;DHT22;60282;43.862;18.430;2023-03-21T05:32:34;7.60;99.90
63771;DHT22;60282;43.862;18.430;2023-03-21T05:42:20;7.70;99.90
63771;DHT22;60282;43.862;18.430;2023-03-21T05:47:13;7.70;99.90
63771;DHT22;60282;43.862;18.430;2023-03-21T05:52:07;7.70;99.90
63771;DHT22;60282;43.862;18.430;2023-03-21T05:56:59;7.80;99.90
63771;DHT22;60282;43.862;18.430;2023-03-21T05:59:25;7.80;99.90
63771;DHT22;60282;43.862;18.430;2023-03-21T06:01:51;7.80;99.90
63771;DHT22;60282;43.862;18.430;2023-03-21T06:04:16;7.80;99.90
63771;DHT22;60282;43.862;18.430;2023-03-21T06:06:44;7.80;99.90
63771;DHT22;60282;43.862;18.430;2023-03-21T06:09:10;7.70;99.90
63771;DHT22;60282;43.862;18.430;2023-03-21T06:11:37;7.80;99.90
63771;DHT22;60282;43.862;18.430;2023-03-21T06:14:03;7.80;99.90
63771;DHT22;60282;43.862;18.430;2023-03-21T06:16:30;7.80;99.90
63771;DHT22;60282;43.862;18.430;2023-03-21T06:18:56;7.90;99.90
63771;DHT22;60282;43.862;18.430;2023-03-21T06:21:24;7.90;99.90
63771;DHT22;60282;43.862;18.430;2023-03-21T06:23:50;8.00;99.90
63771;DHT22;60282;43.862;18.430;2023-03-21T06:26:19;8.00;99.90
63771;DHT22;60282;43.862;18.430;2023-03-21T06:28:51;8.00;99.90
63771;DHT22;60282;43.862;18.430;2023-03-21T06:31:17;8.10;99.90
63771;DHT22;60282;43.862;18.430;2023-03-21T06:33:45;8.10;99.90
63771;DHT22;60282;43.862;18.430;2023-03-21T06:36:17;8.20;99.90
63771;DHT22;60282;43.862;18.430;2023-03-21T06:38:51;8.30;99.90
63771;DHT22;60282;43.862;18.430;2023-03-21T06:41:24;8.30;99.90
63771;DHT22;60282;43.862;18.430;2023-03-21T06:46:16;8.40;99.90
63771;DHT22;60282;43.862;18.430;2023-03-21T06:48:41;8.40;99.90
63771;DHT22;60282;43.862;18.430;2023-03-21T06:51:10;8.50;99.90
63771;DHT22;60282;43.862;18.430;2023-03-21T06:53:36;8.20;99.90
63771;DHT22;60282;43.862;18.430;2023-03-21T06:56:02;8.60;99.90
63771;DHT22;60282;43.862;18.430;2023-03-21T06:58:28;8.60;99.90
63771;DHT22;60282;43.862;18.430;2023-03-21T07:00:56;10.40;99.90
63771;DHT22;60282;43.862;18.430;2023-03-21T07:03:22;8.70;99.90
63771;DHT22;60282;43.862;18.430;2023-03-21T07:05:49;7.30;99.90
63771;DHT22;60282;43.862;18.430;2023-03-21T07:08:14;8.90;99.90
63771;DHT22;60282;43.862;18.430;2023-03-21T07:10:41;8.90;99.90
63771;DHT22;60282;43.862;18.430;2023-03-21T07:13:07;8.90;99.90
63771;DHT22;60282;43.862;18.430;2023-03-21T07:15:33;8.90;99.90
63771;DHT22;60282;43.862;18.430;2023-03-21T07:18:04;9.00;99.90
63771;DHT22;60282;43.862;18.430;2023-03-21T07:20:36;9.40;99.90
63771;DHT22;60282;43.862;18.430;2023-03-21T07:23:03;6.60;99.90
63771;DHT22;60282;43.862;18.430;2023-03-21T07:25:29;9.10;99.90
63771;DHT22;60282;43.862;18.430;2023-03-21T07:27:56;9.40;99.90
63771;DHT22;60282;43.862;18.430;2023-03-21T07:30:22;9.20;99.90
63771;DHT22;60282;43.862;18.430;2023-03-21T07:32:48;9.40;99.90
63771;DHT22;60282;43.862;18.430;2023-03-21T07:35:16;9.30;99.90
63771;DHT22;60282;43.862;18.430;2023-03-21T07:37:42;9.40;99.90
63771;DHT22;60282;43.862;18.430;2023-03-21T07:40:11;10.00;99.90
63771;DHT22;60282;43.862;18.430;2023-03-21T07:42:38;9.30;99.90
63771;DHT22;60282;43.862;18.430;2023-03-21T07:45:06;9.50;99.90
63771;DHT22;60282;43.862;18.430;2023-03-21T07:47:33;6.40;99.90
63771;DHT22;60282;43.862;18.430;2023-03-21T07:50:00;9.50;99.90
63771;DHT22;60282;43.862;18.430;2023-03-21T07:52:26;9.60;99.90
63771;DHT22;60282;43.862;18.430;2023-03-21T07:57:19;9.80;99.90
63771;DHT22;60282;43.862;18.430;2023-03-21T07:59:46;9.90;99.90
63771;DHT22;60282;43.862;18.430;2023-03-21T08:02:14;10.00;99.90
63771;DHT22;60282;43.862;18.430;2023-03-21T08:04:41;10.20;99.90
63771;DHT22;60282;43.862;18.430;2023-03-21T08:07:07;10.00;99.90
63771;DHT22;60282;43.862;18.430;2023-03-21T08:09:33;10.10;99.90
63771;DHT22;60282;43.862;18.430;2023-03-21T08:12:01;10.70;99.90
63771;DHT22;60282;43.862;18.430;2023-03-21T08:14:28;10.40;99.90
63771;DHT22;60282;43.862;18.430;2023-03-21T08:16:53;10.50;99.90
63771;DHT22;60282;43.862;18.430;2023-03-21T08:19:24;10.70;99.90
63771;DHT22;60282;43.862;18.430;2023-03-21T08:21:52;10.50;99.90
63771;DHT22;60282;43.862;18.430;2023-03-21T08:24:27;11.30;99.90
63771;DHT22;60282;43.862;18.430;2023-03-21T08:26:53;10.60;99.90
63771;DHT22;60282;43.862;18.430;2023-03-21T08:29:19;10.70;99.90
63771;DHT22;60282;43.862;18.430;2023-03-21T08:31:46;10.60;99.90
63771;DHT22;60282;43.862;18.430;2023-03-21T08:34:12;10.80;99.90
63771;DHT22;60282;43.862;18.430;2023-03-21T08:36:38;10.90;99.90
63771;DHT22;60282;43.862;18.430;2023-03-21T08:39:04;11.00;99.90
63771;DHT22;60282;43.862;18.430;2023-03-21T08:41:36;11.00;99.90
63771;DHT22;60282;43.862;18.430;2023-03-21T08:44:04;11.20;99.90
63771;DHT22;60282;43.862;18.430;2023-03-21T08:46:31;11.30;99.90
63771;DHT22;60282;43.862;18.430;2023-03-21T08:48:57;11.30;99.90
63771;DHT22;60282;43.862;18.430;2023-03-21T08:51:24;11.40;99.90
63771;DHT22;60282;43.862;18.430;2023-03-21T08:53:50;11.50;99.90
63771;DHT22;60282;43.862;18.430;2023-03-21T08:56:16;11.70;99.90
63771;DHT22;60282;43.862;18.430;2023-03-21T08:58:43;11.70;99.90
63771;DHT22;60282;43.862;18.430;2023-03-21T09:01:10;11.60;99.90
63771;DHT22;60282;43.862;18.430;2023-03-21T09:03:41;11.70;99.90
63771;DHT22;60282;43.862;18.430;2023-03-21T09:06:09;12.50;99.90
63771;DHT22;60282;43.862;18.430;2023-03-21T09:08:36;13.40;99.90
63771;DHT22;60282;43.862;18.430;2023-03-21T09:11:01;11.90;99.90
63771;DHT22;60282;43.862;18.430;2023-03-21T09:13:27;12.10;99.90
63771;DHT22;60282;43.862;18.430;2023-03-21T09:15:54;12.40;99.90
63771;DHT22;60282;43.862;18.430;2023-03-21T09:18:22;12.60;99.90
63771;DHT22;60282;43.862;18.430;2023-03-21T09:21:09;12.90;99.90
63771;DHT22;60282;43.862;18.430;2023-03-21T09:23:38;11.90;99.90
63771;DHT22;60282;43.862;18.430;2023-03-21T09:26:05;13.00;99.90
63771;DHT22;60282;43.862;18.430;2023-03-21T09:28:31;13.20;99.90
63771;DHT22;60282;43.862;18.430;2023-03-21T09:30:58;13.40;99.90
63771;DHT22;60282;43.862;18.430;2023-03-21T09:33:27;13.50;99.90
63771;DHT22;60282;43.862;18.430;2023-03-21T09:35:54;13.50;99.90
63771;DHT22;60282;43.862;18.430;2023-03-21T09:38:20;13.60;99.90
63771;DHT22;60282;43.862;18.430;2023-03-21T09:44:05;13.80;99.90
63771;DHT22;60282;43.862;18.430;2023-03-21T09:46:44;13.90;99.90
63771;DHT22;60282;43.862;18.430;2023-03-21T09:55:48;13.80;99.90
63771;DHT22;60282;43.862;18.430;2023-03-21T09:58:27;13.60;99.90
63771;DHT22;60282;43.862;18.430;2023-03-21T10:01:16;14.20;99.90
63771;DHT22;60282;43.862;18.430;2023-03-21T10:03:55;13.50;99.90
63771;DHT22;60282;43.862;18.430;2023-03-21T10:06:25;13.60;99.90
63771;DHT22;60282;43.862;18.430;2023-03-21T10:11:30;13.40;99.90
63771;DHT22;60282;43.862;18.430;2023-03-21T10:14:06;13.50;99.90
63771;DHT22;60282;43.862;18.430;2023-03-21T10:16:48;13.50;99.90
63771;DHT22;60282;43.862;18.430;2023-03-21T10:19:16;13.50;99.90
63771;DHT22;60282;43.862;18.430;2023-03-21T10:21:46;11.70;99.90
63771;DHT22;60282;43.862;18.430;2023-03-21T10:24:24;13.40;99.90
63771;DHT22;60282;43.862;18.430;2023-03-21T10:26:52;13.60;99.90
63771;DHT22;60282;43.862;18.430;2023-03-21T10:29:21;13.60;99.90
63771;DHT22;60282;43.862;18.430;2023-03-21T10:31:49;14.00;99.90
63771;DHT22;60282;43.862;18.430;2023-03-21T10:36:58;14.60;99.90
63771;DHT22;60282;43.862;18.430;2023-03-21T10:39:33;14.60;99.90
63771;DHT22;60282;43.862;18.430;2023-03-21T10:42:00;14.70;99.80
63771;DHT22;60282;43.862;18.430;2023-03-21T10:44:34;14.80;99.90
63771;DHT22;60282;43.862;18.430;2023-03-21T10:47:07;14.70;99.90
63771;DHT22;60282;43.862;18.430;2023-03-21T10:49:35;14.80;99.90
63771;DHT22;60282;43.862;18.430;2023-03-21T10:52:06;14.70;99.90
63771;DHT22;60282;43.862;18.430;2023-03-21T10:54:33;14.70;99.90
63771;DHT22;60282;43.862;18.430;2023-03-21T10:57:11;14.70;99.90
63771;DHT22;60282;43.862;18.430;2023-03-21T10:59:44;15.40;99.90
63771;DHT22;60282;43.862;18.430;2023-03-21T11:02:26;14.50;99.90
63771;DHT22;60282;43.862;18.430;2023-03-21T11:04:53;14.40;99.90
63771;DHT22;60282;43.862;18.430;2023-03-21T11:07:21;14.30;99.90
63771;DHT22;60282;43.862;18.430;2023-03-21T11:09:57;14.30;99.90
63771;DHT22;60282;43.862;18.430;2023-03-21T11:12:36;14.30;99.90
63771;DHT22;60282;43.862;18.430;2023-03-21T11:15:28;14.30;99.90
63771;DHT22;60282;43.862;18.430;2023-03-21T11:17:56;14.20;99.90
63771;DHT22;60282;43.862;18.430;2023-03-21T11:20:22;14.30;99.90
63771;DHT22;60282;43.862;18.430;2023-03-21T11:22:48;14.30;99.90
63771;DHT22;60282;43.862;18.430;2023-03-21T11:25:31;14.90;99.90
63771;DHT22;60282;43.862;18.430;2023-03-21T11:28:06;13.80;99.90
63771;DHT22;60282;43.862;18.430;2023-03-21T11:30:33;14.80;99.90
63771;DHT22;60282;43.862;18.430;2023-03-21T11:33:03;14.90;99.90
63771;DHT22;60282;43.862;18.430;2023-03-21T11:35:37;15.10;99.90
63771;DHT22;60282;43.862;18.430;2023-03-21T11:38:04;15.20;99.90
63771;DHT22;60282;43.862;18.430;2023-03-21T11:40:36;15.20;99.90
63771;DHT22;60282;43.862;18.430;2023-03-21T11:43:25;15.30;99.90
63771;DHT22;60282;43.862;18.430;2023-03-21T11:51:30;15.30;99.70
63771;DHT22;60282;43.862;18.430;2023-03-21T11:54:18;15.00;99.90
63771;DHT22;60282;43.862;18.430;2023-03-21T11:56:51;14.90;99.90
63771;DHT22;60282;43.862;18.430;2023-03-21T11:59:30;14.90;99.90
63771;DHT22;60282;43.862;18.430;2023-03-21T12:05:01;14.70;99.90
63771;DHT22;60282;43.862;18.430;2023-03-21T12:10:42;14.70;99.90
63771;DHT22;60282;43.862;18.430;2023-03-21T12:21:10;15.10;99.90
63771;DHT22;60282;43.862;18.430;2023-03-21T12:32:20;15.70;99.40
63771;DHT22;60282;43.862;18.430;2023-03-21T12:38:00;14.40;96.50
63771;DHT22;60282;43.862;18.430;2023-03-21T12:45:54;16.40;95.90
63771;DHT22;60282;43.862;18.430;2023-03-21T12:50:47;16.50;96.40
63771;DHT22;60282;43.862;18.430;2023-03-21T12:55:50;16.50;96.10
63771;DHT22;60282;43.862;18.430;2023-03-21T12:58:19;16.30;96.00
63771;DHT22;60282;43.862;18.430;2023-03-21T13:00:59;16.40;95.10
63771;DHT22;60282;43.862;18.430;2023-03-21T13:03:50;16.60;94.00
63771;DHT22;60282;43.862;18.430;2023-03-21T13:06:20;16.20;95.00
63771;DHT22;60282;43.862;18.430;2023-03-21T13:09:17;17.10;96.00
63771;DHT22;60282;43.862;18.430;2023-03-21T13:11:50;16.40;96.00
63771;DHT22;60282;43.862;18.430;2023-03-21T13:14:24;16.20;98.90
63771;DHT22;60282;43.862;18.430;2023-03-21T13:16:57;15.60;99.20
63771;DHT22;60282;43.862;18.430;2023-03-21T13:19:47;15.60;99.00
63771;DHT22;60282;43.862;18.430;2023-03-21T13:27:30;15.80;97.60
63771;DHT22;60282;43.862;18.430;2023-03-21T13:32:33;15.70;97.50
63771;DHT22;60282;43.862;18.430;2023-03-21T13:35:22;15.80;97.40
63771;DHT22;60282;43.862;18.430;2023-03-21T13:38:05;15.70;97.70
63771;DHT22;60282;43.862;18.430;2023-03-21T13:43:02;15.60;98.50
63771;DHT22;60282;43.862;18.430;2023-03-21T13:45:44;15.60;98.70
63771;DHT22;60282;43.862;18.430;2023-03-21T13:48:31;15.50;98.20
63771;DHT22;60282;43.862;18.430;2023-03-21T13:51:05;15.50;98.90
63771;DHT22;60282;43.862;18.430;2023-03-21T13:53:32;15.40;99.10
63771;DHT22;60282;43.862;18.430;2023-03-21T14:04:03;15.30;99.90
63771;DHT22;60282;43.862;18.430;2023-03-21T14:06:41;15.30;99.90
63771;DHT22;60282;43.862;18.430;2023-03-21T14:09:10;15.20;99.90
63771;DHT22;60282;43.862;18.430;2023-03-21T14:11:40;15.20;99.90
63771;DHT22;60282;43.862;18.430;2023-03-21T14:14:09;15.20;99.90
63771;DHT22;60282;43.862;18.430;2023-03-21T14:16:35;15.20;99.90
63771;DHT22;60282;43.862;18.430;2023-03-21T14:19:05;15.20;99.90
63771;DHT22;60282;43.862;18.430;2023-03-21T14:21:33;15.20;99.80
63771;DHT22;60282;43.862;18.430;2023-03-21T14:24:06;15.20;98.50
63771;DHT22;60282;43.862;18.430;2023-03-21T14:26:39;15.20;96.50
63771;DHT22;60282;43.862;18.430;2023-03-21T14:29:06;15.10;96.00
63771;DHT22;60282;43.862;18.430;2023-03-21T14:31:46;15.10;96.10
63771;DHT22;60282;43.862;18.430;2023-03-21T14:34:14;14.90;96.90
63771;DHT22;60282;43.862;18.430;2023-03-21T14:36:42;15.00;96.50
63771;DHT22;60282;43.862;18.430;2023-03-21T14:39:17;15.10;97.50
63771;DHT22;60282;43.862;18.430;2023-03-21T14:41:53;14.90;97.50
63771;DHT22;60282;43.862;18.430;2023-03-21T14:44:24;14.80;97.30
63771;DHT22;60282;43.862;18.430;2023-03-21T14:47:05;14.80;98.20
63771;DHT22;60282;43.862;18.430;2023-03-21T14:49:36;14.70;99.00
63771;DHT22;60282;43.862;18.430;2023-03-21T14:52:09;14.60;99.00
63771;DHT22;60282;43.862;18.430;2023-03-21T14:54:39;14.60;98.80
63771;DHT22;60282;43.862;18.430;2023-03-21T14:57:20;15.60;99.40
63771;DHT22;60282;43.862;18.430;2023-03-21T14:59:51;14.50;99.50
63771;DHT22;60282;43.862;18.430;2023-03-21T15:02:24;14.40;99.60
63771;DHT22;60282;43.862;18.430;2023-03-21T15:04:52;14.30;99.40
63771;DHT22;60282;43.862;18.430;2023-03-21T15:07:32;14.30;99.90
63771;DHT22;60282;43.862;18.430;2023-03-21T15:10:01;14.30;99.90
63771;DHT22;60282;43.862;18.430;2023-03-21T15:12:28;14.70;99.90
63771;DHT22;60282;43.862;18.430;2023-03-21T15:14:55;14.30;99.90
63771;DHT22;60282;43.862;18.430;2023-03-21T15:17:21;14.10;99.90
63771;DHT22;60282;43.862;18.430;2023-03-21T15:19:48;14.30;99.90
63771;DHT22;60282;43.862;18.430;2023-03-21T15:22:17;12.10;99.40
63771;DHT22;60282;43.862;18.430;2023-03-21T15:24:49;14.30;99.90
63771;DHT22;60282;43.862;18.430;2023-03-21T15:27:18;14.50;99.90
63771;DHT22;60282;43.862;18.430;2023-03-21T15:29:53;14.70;99.20
63771;DHT22;60282;43.862;18.430;2023-03-21T15:32:23;16.60;97.60
63771;DHT22;60282;43.862;18.430;2023-03-21T15:34:52;15.10;96.80
63771;DHT22;60282;43.862;18.430;2023-03-21T15:37:26;15.00;95.80
63771;DHT22;60282;43.862;18.430;2023-03-21T15:39:53;14.90;95.90
63771;DHT22;60282;43.862;18.430;2023-03-21T15:42:37;15.20;96.20
63771;DHT22;60282;43.862;18.430;2023-03-21T15:45:20;16.90;96.30
63771;DHT22;60282;43.862;18.430;2023-03-21T15:52:51;14.50;98.00
63771;DHT22;60282;43.862;18.430;2023-03-21T15:55:27;14.20;99.30
63771;DHT22;60282;43.862;18.430;2023-03-21T15:57:59;14.10;99.10
63771;DHT22;60282;43.862;18.430;2023-03-21T16:00:37;14.60;99.70
63771;DHT22;60282;43.862;18.430;2023-03-21T16:03:15;14.00;99.90
63771;DHT22;60282;43.862;18.430;2023-03-21T16:06:04;13.90;99.90
63771;DHT22;60282;43.862;18.430;2023-03-21T16:08:45;13.80;99.90
63771;DHT22;60282;43.862;18.430;2023-03-21T16:11:36;13.70;99.90
63771;DHT22;60282;43.862;18.430;2023-03-21T16:14:02;13.70;99.90
63771;DHT22;60282;43.862;18.430;2023-03-21T16:16:28;14.50;99.90
63771;DHT22;60282;43.862;18.430;2023-03-21T16:18:56;13.80;99.90
63771;DHT22;60282;43.862;18.430;2023-03-21T16:21:25;13.50;99.90
63771;DHT22;60282;43.862;18.430;2023-03-21T16:23:51;11.90;99.90
63771;DHT22;60282;43.862;18.430;2023-03-21T16:26:23;13.40;99.90
63771;DHT22;60282;43.862;18.430;2023-03-21T16:28:50;13.70;99.90
63771;DHT22;60282;43.862;18.430;2023-03-21T16:31:22;13.50;99.90
63771;DHT22;60282;43.862;18.430;2023-03-21T16:33:48;13.30;99.90
63771;DHT22;60282;43.862;18.430;2023-03-21T16:36:23;13.40;99.90
63771;DHT22;60282;43.862;18.430;2023-03-21T16:38:50;13.10;99.90
63771;DHT22;60282;43.862;18.430;2023-03-21T16:41:18;13.10;99.90
63771;DHT22;60282;43.862;18.430;2023-03-21T16:43:44;13.10;99.90
63771;DHT22;60282;43.862;18.430;2023-03-21T16:46:30;12.80;99.90
63771;DHT22;60282;43.862;18.430;2023-03-21T16:48:57;13.00;99.90
63771;DHT22;60282;43.862;18.430;2023-03-21T16:51:32;13.20;99.90
63771;DHT22;60282;43.862;18.430;2023-03-21T16:56:30;12.80;99.90
63771;DHT22;60282;43.862;18.430;2023-03-21T16:58:58;13.50;99.90
63771;DHT22;60282;43.862;18.430;2023-03-21T17:01:24;12.70;99.90
63771;DHT22;60282;43.862;18.430;2023-03-21T17:03:51;12.70;99.90
63771;DHT22;60282;43.862;18.430;2023-03-21T17:06:21;12.60;99.90
63771;DHT22;60282;43.862;18.430;2023-03-21T17:08:49;12.80;99.90
63771;DHT22;60282;43.862;18.430;2023-03-21T17:11:17;12.50;99.90
63771;DHT22;60282;43.862;18.430;2023-03-21T17:13:48;12.60;99.90
63771;DHT22;60282;43.862;18.430;2023-03-21T17:16:17;13.10;99.90
63771;DHT22;60282;43.862;18.430;2023-03-21T17:18:43;12.70;99.90
63771;DHT22;60282;43.862;18.430;2023-03-21T17:21:15;12.40;99.90
63771;DHT22;60282;43.862;18.430;2023-03-21T17:23:42;12.40;99.90
63771;DHT22;60282;43.862;18.430;2023-03-21T17:26:08;12.30;99.90
63771;DHT22;60282;43.862;18.430;2023-03-21T17:28:36;12.40;99.90
63771;DHT22;60282;43.862;18.430;2023-03-21T17:31:13;12.30;99.90
63771;DHT22;60282;43.862;18.430;2023-03-21T17:33:40;12.70;99.90
63771;DHT22;60282;43.862;18.430;2023-03-21T17:36:22;12.30;99.90
63771;DHT22;60282;43.862;18.430;2023-03-21T17:38:49;12.70;99.90
63771;DHT22;60282;43.862;18.430;2023-03-21T17:41:18;12.20;99.90
63771;DHT22;60282;43.862;18.430;2023-03-21T17:43:45;12.20;99.90
63771;DHT22;60282;43.862;18.430;2023-03-21T17:46:13;12.40;99.90
63771;DHT22;60282;43.862;18.430;2023-03-21T17:48:39;12.10;99.90
63771;DHT22;60282;43.862;18.430;2023-03-21T17:51:09;12.10;99.90
63771;DHT22;60282;43.862;18.430;2023-03-21T17:53:45;12.10;99.90
63771;DHT22;60282;43.862;18.430;2023-03-21T17:56:20;12.00;99.90
63771;DHT22;60282;43.862;18.430;2023-03-21T17:58:46;12.00;99.90
63771;DHT22;60282;43.862;18.430;2023-03-21T18:01:12;12.10;99.90
63771;DHT22;60282;43.862;18.430;2023-03-21T18:03:38;12.00;99.90
63771;DHT22;60282;43.862;18.430;2023-03-21T18:06:05;11.90;99.90
63771;DHT22;60282;43.862;18.430;2023-03-21T18:08:31;11.90;99.90
63771;DHT22;60282;43.862;18.430;2023-03-21T18:10:57;11.80;99.90
63771;DHT22;60282;43.862;18.430;2023-03-21T18:13:23;11.80;99.90
63771;DHT22;60282;43.862;18.430;2023-03-21T18:15:49;11.80;99.90
63771;DHT22;60282;43.862;18.430;2023-03-21T18:18:15;8.90;99.90
63771;DHT22;60282;43.862;18.430;2023-03-21T18:20:42;11.80;99.90
63771;DHT22;60282;43.862;18.430;2023-03-21T18:23:08;11.80;99.90
63771;DHT22;60282;43.862;18.430;2023-03-21T18:25:33;11.80;99.90
63771;DHT22;60282;43.862;18.430;2023-03-21T18:27:59;11.70;99.90
63771;DHT22;60282;43.862;18.430;2023-03-21T18:30:25;9.40;99.90
63771;DHT22;60282;43.862;18.430;2023-03-21T18:32:51;11.70;99.90
63771;DHT22;60282;43.862;18.430;2023-03-21T18:35:18;11.60;99.90